sensor_id;sensor_type;location;lat;lon;timestamp;temperature;humidity
23681;DHT22;62915;50.832;4.462;2023-09-19T00:00:23;17.60;99.90
23681;DHT22;62915;50.832;4.462;2023-09-19T00:02:58;17.50;99.90
23681;DHT22;62915;50.832;4.462;2023-09-19T00:05:28;17.50;99.90
23681;DHT22;62915;50.832;4.462;2023-09-19T00:07:56;17.60;99.90
23681;DHT22;62915;50.832;4.462;2023-09-19T00:10:27;17.60;99.90
23681;DHT22;62915;50.832;4.462;2023-09-19T00:13:02;17.70;99.90
23681;DHT22;62915;50.832;4.462;2023-09-19T00:15:40;17.70;99.90
23681;DHT22;62915;50.832;4.462;2023-09-19T00:18:07;17.80;99.90
23681;DHT22;62915;50.832;4.462;2023-09-19T00:20:37;17.70;99.90
23681;DHT22;62915;50.832;4.462;2023-09-19T00:23:04;17.60;99.90
23681;DHT22;62915;50.832;4.462;2023-09-19T00:25:38;17.60;99.90
23681;DHT22;62915;50.832;4.462;2023-09-19T00:28:05;17.60;99.90
23681;DHT22;62915;50.832;4.462;2023-09-19T00:30:35;17.60;99.90
23681;DHT22;62915;50.832;4.462;2023-09-19T00:33:01;17.60;99.90
23681;DHT22;62915;50.832;4.462;2023-09-19T00:35:31;17.70;99.90
23681;DHT22;62915;50.832;4.462;2023-09-19T00:37:57;17.60;99.90
23681;DHT22;62915;50.832;4.462;2023-09-19T00:40:22;17.50;99.90
23681;DHT22;62915;50.832;4.462;2023-09-19T00:42:49;17.60;99.90
23681;DHT22;62915;50.832;4.462;2023-09-19T00:45:17;17.60;99.90
23681;DHT22;62915;50.832;4.462;2023-09-19T00:47:50;17.50;99.90
23681;DHT22;62915;50.832;4.462;2023-09-19T00:50:22;17.40;99.90
23681;DHT22;62915;50.832;4.462;2023-09-19T00:52:49;17.50;99.90
23681;DHT22;62915;50.832;4.462;2023-09-19T00:55:16;17.40;99.90
23681;DHT22;62915;50.832;4.462;2023-09-19T00:57:44;17.50;99.90
23681;DHT22;62915;50.832;4.462;2023-09-19T01:00:10;17.40;99.90
23681;DHT22;62915;50.832;4.462;2023-09-19T01:02:41;17.50;99.90
23681;DHT22;62915;50.832;4.462;2023-09-19T01:05:09;17.60;99.90
23681;DHT22;62915;50.832;4.462;2023-09-19T01:07:36;17.50;99.90
23681;DHT22;62915;50.832;4.462;2023-09-19T01:10:05;17.40;99.90
23681;DHT22;62915;50.832;4.462;2023-09-19T01:18:34;17.30;99.90
23681;DHT22;62915;50.832;4.462;2023-09-19T01:29:39;17.40;99.90
23681;DHT22;62915;50.832;4.462;2023-09-19T01:32:13;17.20;99.90
23681;DHT22;62915;50.832;4.462;2023-09-19T01:37:14;17.30;99.90
23681;DHT22;62915;50.832;4.462;2023-09-19T01:39:48;17.30;99.90
23681;DHT22;62915;50.832;4.462;2023-09-19T01:47:55;17.40;99.90
23681;DHT22;62915;50.832;4.462;2023-09-19T01:50:32;17.50;99.90
23681;DHT22;62915;50.832;4.462;2023-09-19T01:53:30;17.50;99.90
23681;DHT22;62915;50.832;4.462;2023-09-19T01:55:59;17.50;99.90
23681;DHT22;62915;50.832;4.462;2023-09-19T01:58:34;17.40;99.90
23681;DHT22;62915;50.832;4.462;2023-09-19T02:01:01;17.40;99.90
23681;DHT22;62915;50.832;4.462;2023-09-19T02:03:29;17.50;99.90
23681;DHT22;62915;50.832;4.462;2023-09-19T02:05:56;17.40;99.90
23681;DHT22;62915;50.832;4.462;2023-09-19T02:08:22;17.30;99.90
23681;DHT22;62915;50.832;4.462;2023-09-19T02:10:51;17.10;99.90
23681;DHT22;62915;50.832;4.462;2023-09-19T02:13:19;17.20;99.90
23681;DHT22;62915;50.832;4.462;2023-09-19T02:15:46;17.20;99.90
23681;DHT22;62915;50.832;4.462;2023-09-19T02:18:13;17.10;99.90
23681;DHT22;62915;50.832;4.462;2023-09-19T02:20:39;17.10;99.90
23681;DHT22;62915;50.832;4.462;2023-09-19T02:23:06;17.30;99.90
23681;DHT22;62915;50.832;4.462;2023-09-19T02:25:31;17.40;99.90
23681;DHT22;62915;50.832;4.462;2023-09-19T02:27:58;17.30;99.90
23681;DHT22;62915;50.832;4.462;2023-09-19T02:30:25;17.30;99.90
23681;DHT22;62915;50.832;4.462;2023-09-19T02:32:51;17.20;99.90
23681;DHT22;62915;50.832;4.462;2023-09-19T02:35:17;17.20;99.90
23681;DHT22;62915;50.832;4.462;2023-09-19T02:37:45;17.10;99.90
23681;DHT22;62915;50.832;4.462;2023-09-19T02:40:11;17.10;99.90
23681;DHT22;62915;50.832;4.462;2023-09-19T02:42:53;17.00;99.90
23681;DHT22;62915;50.832;4.462;2023-09-19T02:45:20;16.90;99.90
23681;DHT22;62915;50.832;4.462;2023-09-19T02:47:47;17.10;99.90
23681;DHT22;62915;50.832;4.462;2023-09-19T02:50:14;17.10;99.90
23681;DHT22;62915;50.832;4.462;2023-09-19T02:52:43;17.20;99.90
23681;DHT22;62915;50.832;4.462;2023-09-19T02:55:11;17.10;99.90
23681;DHT22;62915;50.832;4.462;2023-09-19T02:57:38;17.10;99.90
23681;DHT22;62915;50.832;4.462;2023-09-19T03:00:08;17.20;99.90
23681;DHT22;62915;50.832;4.462;2023-09-19T03:02:36;17.10;99.90
23681;DHT22;62915;50.832;4.462;2023-09-19T03:05:02;17.00;99.90
23681;DHT22;62915;50.832;4.462;2023-09-19T03:07:29;16.90;99.90
23681;DHT22;62915;50.832;4.462;2023-09-19T03:09:54;16.90;99.90
23681;DHT22;62915;50.832;4.462;2023-09-19T03:12:20;16.90;99.90
23681;DHT22;62915;50.832;4.462;2023-09-19T03:14:46;16.90;99.90
23681;DHT22;62915;50.832;4.462;2023-09-19T03:17:12;16.90;99.90
23681;DHT22;62915;50.832;4.462;2023-09-19T03:19:40;16.90;99.90
23681;DHT22;62915;50.832;4.462;2023-09-19T03:22:06;16.90;99.90
23681;DHT22;62915;50.832;4.462;2023-09-19T03:24:33;16.90;99.90
23681;DHT22;62915;50.832;4.462;2023-09-19T03:26:59;16.90;99.90
23681;DHT22;62915;50.832;4.462;2023-09-19T03:29:25;16.80;99.90
23681;DHT22;62915;50.832;4.462;2023-09-19T03:31:51;16.60;99.90
23681;DHT22;62915;50.832;4.462;2023-09-19T03:34:17;16.70;99.90
23681;DHT22;62915;50.832;4.462;2023-09-19T03:36:44;16.70;99.90
23681;DHT22;62915;50.832;4.462;2023-09-19T03:39:09;16.80;99.90
23681;DHT22;62915;50.832;4.462;2023-09-19T03:41:36;17.00;99.90
23681;DHT22;62915;50.832;4.462;2023-09-19T03:44:02;17.10;99.90
23681;DHT22;62915;50.832;4.462;2023-09-19T03:46:28;17.00;99.90
23681;DHT22;62915;50.832;4.462;2023-09-19T03:48:55;16.90;99.90
23681;DHT22;62915;50.832;4.462;2023-09-19T03:51:21;17.00;99.90
23681;DHT22;62915;50.832;4.462;2023-09-19T03:53:47;16.90;99.90
23681;DHT22;62915;50.832;4.462;2023-09-19T03:56:14;16.80;99.90
23681;DHT22;62915;50.832;4.462;2023-09-19T03:58:41;16.70;99.90
23681;DHT22;62915;50.832;4.462;2023-09-19T04:01:07;16.60;99.90
23681;DHT22;62915;50.832;4.462;2023-09-19T04:03:36;16.50;99.90
23681;DHT22;62915;50.832;4.462;2023-09-19T04:06:15;16.50;99.90
23681;DHT22;62915;50.832;4.462;2023-09-19T04:08:42;16.50;99.90
23681;DHT22;62915;50.832;4.462;2023-09-19T04:11:08;16.40;99.90
23681;DHT22;62915;50.832;4.462;2023-09-19T04:13:34;16.50;99.90
23681;DHT22;62915;50.832;4.462;2023-09-19T04:16:00;16.50;99.90
23681;DHT22;62915;50.832;4.462;2023-09-19T04:18:26;16.50;99.90
23681;DHT22;62915;50.832;4.462;2023-09-19T04:20:52;16.50;99.90
23681;DHT22;62915;50.832;4.462;2023-09-19T04:23:18;16.60;99.90
23681;DHT22;62915;50.832;4.462;2023-09-19T04:25:47;16.50;99.90
23681;DHT22;62915;50.832;4.462;2023-09-19T04:28:14;16.60;99.90
23681;DHT22;62915;50.832;4.462;2023-09-19T04:30:41;16.60;99.90
23681;DHT22;62915;50.832;4.462;2023-09-19T04:33:07;16.50;99.90
23681;DHT22;62915;50.832;4.462;2023-09-19T04:35:33;16.60;99.90
23681;DHT22;62915;50.832;4.462;2023-09-19T04:38:00;16.50;99.90
23681;DHT22;62915;50.832;4.462;2023-09-19T04:40:26;16.50;99.90
23681;DHT22;62915;50.832;4.462;2023-09-19T04:42:56;16.60;99.90
23681;DHT22;62915;50.832;4.462;2023-09-19T04:45:25;16.30;99.90
23681;DHT22;62915;50.832;4.462;2023-09-19T04:47:55;16.20;99.90
23681;DHT22;62915;50.832;4.462;2023-09-19T04:50:21;16.40;99.90
23681;DHT22;62915;50.832;4.462;2023-09-19T04:52:51;16.30;99.90
23681;DHT22;62915;50.832;4.462;2023-09-19T04:55:18;16.30;99.90
23681;DHT22;62915;50.832;4.462;2023-09-19T04:57:51;16.30;99.90
23681;DHT22;62915;50.832;4.462;2023-09-19T05:00:20;16.40;99.90
23681;DHT22;62915;50.832;4.462;2023-09-19T05:02:54;16.50;99.90
23681;DHT22;62915;50.832;4.462;2023-09-19T05:05:20;16.50;99.90
23681;DHT22;62915;50.832;4.462;2023-09-19T05:07:47;16.40;99.90
23681;DHT22;62915;50.832;4.462;2023-09-19T05:10:14;16.30;99.90
23681;DHT22;62915;50.832;4.462;2023-09-19T05:12:40;16.40;99.90
23681;DHT22;62915;50.832;4.462;2023-09-19T05:15:07;16.30;99.90
23681;DHT22;62915;50.832;4.462;2023-09-19T05:17:33;16.10;99.90
23681;DHT22;62915;50.832;4.462;2023-09-19T05:20:00;16.10;99.90
23681;DHT22;62915;50.832;4.462;2023-09-19T05:23:01;16.20;99.90
23681;DHT22;62915;50.832;4.462;2023-09-19T05:25:28;16.20;99.90
23681;DHT22;62915;50.832;4.462;2023-09-19T05:27:56;16.20;99.90
23681;DHT22;62915;50.832;4.462;2023-09-19T05:30:23;16.30;99.90
23681;DHT22;62915;50.832;4.462;2023-09-19T05:32:49;16.30;99.90
23681;DHT22;62915;50.832;4.462;2023-09-19T05:35:17;16.30;99.90
23681;DHT22;62915;50.832;4.462;2023-09-19T05:37:42;16.20;99.90
23681;DHT22;62915;50.832;4.462;2023-09-19T05:40:10;16.30;99.90
23681;DHT22;62915;50.832;4.462;2023-09-19T05:42:38;16.30;99.90
23681;DHT22;62915;50.832;4.462;2023-09-19T05:45:05;16.30;99.90
23681;DHT22;62915;50.832;4.462;2023-09-19T05:47:32;16.30;99.90
23681;DHT22;62915;50.832;4.462;2023-09-19T05:49:58;16.20;99.90
23681;DHT22;62915;50.832;4.462;2023-09-19T05:52:25;16.20;99.90
23681;DHT22;62915;50.832;4.462;2023-09-19T05:54:51;16.40;99.90
23681;DHT22;62915;50.832;4.462;2023-09-19T05:57:16;16.40;99.90
23681;DHT22;62915;50.832;4.462;2023-09-19T05:59:42;16.40;99.90
23681;DHT22;62915;50.832;4.462;2023-09-19T06:02:09;16.20;99.90
23681;DHT22;62915;50.832;4.462;2023-09-19T06:04:36;16.10;99.90
23681;DHT22;62915;50.832;4.462;2023-09-19T06:07:06;16.20;99.90
23681;DHT22;62915;50.832;4.462;2023-09-19T06:09:32;16.20;99.90
23681;DHT22;62915;50.832;4.462;2023-09-19T06:11:58;16.20;99.90
23681;DHT22;62915;50.832;4.462;2023-09-19T06:14:28;16.20;99.90
23681;DHT22;62915;50.832;4.462;2023-09-19T06:16:54;16.30;99.90
23681;DHT22;62915;50.832;4.462;2023-09-19T06:19:20;16.30;99.90
23681;DHT22;62915;50.832;4.462;2023-09-19T06:21:49;16.40;99.90
23681;DHT22;62915;50.832;4.462;2023-09-19T06:24:14;16.40;99.90
23681;DHT22;62915;50.832;4.462;2023-09-19T06:26:40;16.50;99.90
23681;DHT22;62915;50.832;4.462;2023-09-19T06:29:06;16.40;99.90
23681;DHT22;62915;50.832;4.462;2023-09-19T06:31:33;16.30;99.90
23681;DHT22;62915;50.832;4.462;2023-09-19T06:34:00;16.40;99.90
23681;DHT22;62915;50.832;4.462;2023-09-19T06:36:26;16.40;99.90
23681;DHT22;62915;50.832;4.462;2023-09-19T06:38:52;16.50;99.90
23681;DHT22;62915;50.832;4.462;2023-09-19T06:41:18;16.60;99.90
23681;DHT22;62915;50.832;4.462;2023-09-19T06:43:44;16.50;99.90
23681;DHT22;62915;50.832;4.462;2023-09-19T06:46:09;16.50;99.90
23681;DHT22;62915;50.832;4.462;2023-09-19T06:48:35;16.50;99.90
23681;DHT22;62915;50.832;4.462;2023-09-19T06:51:01;16.40;99.90
23681;DHT22;62915;50.832;4.462;2023-09-19T06:53:32;16.50;99.90
23681;DHT22;62915;50.832;4.462;2023-09-19T06:56:00;16.50;99.90
23681;DHT22;62915;50.832;4.462;2023-09-19T06:58:26;16.40;99.90
23681;DHT22;62915;50.832;4.462;2023-09-19T07:00:52;16.40;99.90
23681;DHT22;62915;50.832;4.462;2023-09-19T07:03:17;16.60;99.90
23681;DHT22;62915;50.832;4.462;2023-09-19T07:05:47;16.70;99.90
23681;DHT22;62915;50.832;4.462;2023-09-19T07:08:13;16.70;99.90
23681;DHT22;62915;50.832;4.462;2023-09-19T07:10:41;16.60;99.90
23681;DHT22;62915;50.832;4.462;2023-09-19T07:13:08;16.70;99.90
23681;DHT22;62915;50.832;4.462;2023-09-19T07:15:38;16.70;99.90
23681;DHT22;62915;50.832;4.462;2023-09-19T07:18:22;16.70;99.90
23681;DHT22;62915;50.832;4.462;2023-09-19T07:20:48;16.70;99.90
23681;DHT22;62915;50.832;4.462;2023-09-19T07:23:20;16.60;99.90
23681;DHT22;62915;50.832;4.462;2023-09-19T07:25:48;16.60;99.90
23681;DHT22;62915;50.832;4.462;2023-09-19T07:28:14;16.70;99.90
23681;DHT22;62915;50.832;4.462;2023-09-19T07:30:41;16.70;99.90
23681;DHT22;62915;50.832;4.462;2023-09-19T07:33:09;16.80;99.90
23681;DHT22;62915;50.832;4.462;2023-09-19T07:35:38;16.90;99.90
23681;DHT22;62915;50.832;4.462;2023-09-19T07:38:07;16.80;99.90
23681;DHT22;62915;50.832;4.462;2023-09-19T07:40:33;16.70;99.90
23681;DHT22;62915;50.832;4.462;2023-09-19T07:43:00;16.90;99.90
23681;DHT22;62915;50.832;4.462;2023-09-19T07:45:30;17.00;99.90
23681;DHT22;62915;50.832;4.462;2023-09-19T07:47:56;17.00;99.90
23681;DHT22;62915;50.832;4.462;2023-09-19T07:50:22;16.90;99.90
23681;DHT22;62915;50.832;4.462;2023-09-19T07:52:49;17.00;99.90
23681;DHT22;62915;50.832;4.462;2023-09-19T07:55:19;17.10;99.90
23681;DHT22;62915;50.832;4.462;2023-09-19T07:57:49;17.20;99.90
23681;DHT22;62915;50.832;4.462;2023-09-19T08:00:15;17.20;99.90
23681;DHT22;62915;50.832;4.462;2023-09-19T08:02:42;17.20;99.90
23681;DHT22;62915;50.832;4.462;2023-09-19T08:05:09;17.30;99.90
23681;DHT22;62915;50.832;4.462;2023-09-19T08:07:37;17.50;99.90
23681;DHT22;62915;50.832;4.462;2023-09-19T08:10:04;17.40;99.90
23681;DHT22;62915;50.832;4.462;2023-09-19T08:12:36;17.40;99.90
23681;DHT22;62915;50.832;4.462;2023-09-19T08:15:03;17.50;99.90
23681;DHT22;62915;50.832;4.462;2023-09-19T08:17:33;17.60;99.90
23681;DHT22;62915;50.832;4.462;2023-09-19T08:19:59;17.60;99.90
23681;DHT22;62915;50.832;4.462;2023-09-19T08:22:25;17.70;99.90
23681;DHT22;62915;50.832;4.462;2023-09-19T08:24:52;17.80;99.90
23681;DHT22;62915;50.832;4.462;2023-09-19T08:27:18;17.90;99.90
23681;DHT22;62915;50.832;4.462;2023-09-19T08:29:45;18.00;99.90
23681;DHT22;62915;50.832;4.462;2023-09-19T08:32:11;18.00;99.90
23681;DHT22;62915;50.832;4.462;2023-09-19T08:34:37;17.90;99.90
23681;DHT22;62915;50.832;4.462;2023-09-19T08:37:04;17.90;99.90
23681;DHT22;62915;50.832;4.462;2023-09-19T08:39:30;17.90;99.90
23681;DHT22;62915;50.832;4.462;2023-09-19T08:41:59;18.00;99.90
23681;DHT22;62915;50.832;4.462;2023-09-19T08:44:26;18.10;99.90
23681;DHT22;62915;50.832;4.462;2023-09-19T08:47:11;18.10;99.90
23681;DHT22;62915;50.832;4.462;2023-09-19T08:52:28;18.20;99.90
23681;DHT22;62915;50.832;4.462;2023-09-19T08:54:59;18.40;99.90
23681;DHT22;62915;50.832;4.462;2023-09-19T08:57:33;18.50;99.90
23681;DHT22;62915;50.832;4.462;2023-09-19T09:00:02;18.60;99.90
23681;DHT22;62915;50.832;4.462;2023-09-19T09:02:38;18.60;99.90
23681;DHT22;62915;50.832;4.462;2023-09-19T09:05:08;18.70;99.90
23681;DHT22;62915;50.832;4.462;2023-09-19T09:07:36;18.70;99.90
23681;DHT22;62915;50.832;4.462;2023-09-19T09:10:03;18.80;99.90
23681;DHT22;62915;50.832;4.462;2023-09-19T09:12:30;18.90;99.90
23681;DHT22;62915;50.832;4.462;2023-09-19T09:14:56;18.90;99.90
23681;DHT22;62915;50.832;4.462;2023-09-19T09:17:23;18.90;99.90
23681;DHT22;62915;50.832;4.462;2023-09-19T09:19:52;19.20;99.90
23681;DHT22;62915;50.832;4.462;2023-09-19T09:22:19;19.30;99.90
23681;DHT22;62915;50.832;4.462;2023-09-19T09:24:54;19.50;99.90
23681;DHT22;62915;50.832;4.462;2023-09-19T09:27:22;19.50;99.90
23681;DHT22;62915;50.832;4.462;2023-09-19T09:29:52;19.50;99.90
23681;DHT22;62915;50.832;4.462;2023-09-19T09:32:28;19.50;99.90
23681;DHT22;62915;50.832;4.462;2023-09-19T09:35:00;19.40;99.90
23681;DHT22;62915;50.832;4.462;2023-09-19T09:37:27;19.50;99.90
23681;DHT22;62915;50.832;4.462;2023-09-19T09:40:01;19.60;99.90
23681;DHT22;62915;50.832;4.462;2023-09-19T09:42:50;19.70;99.90
23681;DHT22;62915;50.832;4.462;2023-09-19T09:45:19;19.80;99.90
23681;DHT22;62915;50.832;4.462;2023-09-19T09:47:55;19.60;99.90
23681;DHT22;62915;50.832;4.462;2023-09-19T09:50:30;19.70;99.90
23681;DHT22;62915;50.832;4.462;2023-09-19T09:53:23;19.50;99.90
23681;DHT22;62915;50.832;4.462;2023-09-19T09:56:03;19.40;99.90
23681;DHT22;62915;50.832;4.462;2023-09-19T09:58:36;19.50;99.90
23681;DHT22;62915;50.832;4.462;2023-09-19T10:01:03;19.30;99.90
23681;DHT22;62915;50.832;4.462;2023-09-19T10:03:37;19.30;99.90
23681;DHT22;62915;50.832;4.462;2023-09-19T10:06:12;19.30;99.90
23681;DHT22;62915;50.832;4.462;2023-09-19T10:09:06;19.30;99.90
23681;DHT22;62915;50.832;4.462;2023-09-19T10:12:05;19.40;99.90
23681;DHT22;62915;50.832;4.462;2023-09-19T10:14:37;19.50;99.90
23681;DHT22;62915;50.832;4.462;2023-09-19T10:17:05;19.60;99.90
23681;DHT22;62915;50.832;4.462;2023-09-19T10:19:46;19.60;99.90
23681;DHT22;62915;50.832;4.462;2023-09-19T10:22:17;19.70;99.90
23681;DHT22;62915;50.832;4.462;2023-09-19T10:24:49;19.90;99.90
23681;DHT22;62915;50.832;4.462;2023-09-19T10:27:19;20.10;99.90
23681;DHT22;62915;50.832;4.462;2023-09-19T10:29:49;20.50;99.90
23681;DHT22;62915;50.832;4.462;2023-09-19T10:32:16;21.00;99.90
23681;DHT22;62915;50.832;4.462;2023-09-19T10:34:46;21.20;99.90
23681;DHT22;62915;50.832;4.462;2023-09-19T10:37:13;21.30;99.90
23681;DHT22;62915;50.832;4.462;2023-09-19T10:39:40;21.40;99.90
23681;DHT22;62915;50.832;4.462;2023-09-19T10:42:11;21.60;99.90
23681;DHT22;62915;50.832;4.462;2023-09-19T10:44:43;21.90;99.90
23681;DHT22;62915;50.832;4.462;2023-09-19T10:47:10;22.00;99.90
23681;DHT22;62915;50.832;4.462;2023-09-19T10:49:44;22.00;99.90
23681;DHT22;62915;50.832;4.462;2023-09-19T10:52:19;22.10;99.90
23681;DHT22;62915;50.832;4.462;2023-09-19T10:54:48;22.10;99.90
23681;DHT22;62915;50.832;4.462;2023-09-19T10:57:21;21.90;99.90
23681;DHT22;62915;50.832;4.462;2023-09-19T11:05:36;22.00;99.90
23681;DHT22;62915;50.832;4.462;2023-09-19T11:08:07;21.50;99.90
23681;DHT22;62915;50.832;4.462;2023-09-19T11:10:45;21.60;99.90
23681;DHT22;62915;50.832;4.462;2023-09-19T11:13:25;21.70;99.90
23681;DHT22;62915;50.832;4.462;2023-09-19T11:26:44;22.40;99.90
23681;DHT22;62915;50.832;4.462;2023-09-19T11:29:32;22.60;99.90
23681;DHT22;62915;50.832;4.462;2023-09-19T11:31:59;22.60;99.90
23681;DHT22;62915;50.832;4.462;2023-09-19T11:34:40;22.50;99.90
23681;DHT22;62915;50.832;4.462;2023-09-19T11:40:10;22.60;99.90
23681;DHT22;62915;50.832;4.462;2023-09-19T11:46:14;22.10;99.90
23681;DHT22;62915;50.832;4.462;2023-09-19T11:48:23;22.10;99.90
23681;DHT22;62915;50.832;4.462;2023-09-19T11:50:53;21.80;99.90
23681;DHT22;62915;50.832;4.462;2023-09-19T11:53:19;21.90;99.90
23681;DHT22;62915;50.832;4.462;2023-09-19T11:55:45;22.00;99.90
23681;DHT22;62915;50.832;4.462;2023-09-19T11:58:18;21.70;99.90
23681;DHT22;62915;50.832;4.462;2023-09-19T12:00:45;21.50;99.90
23681;DHT22;62915;50.832;4.462;2023-09-19T12:03:19;21.60;99.90
23681;DHT22;62915;50.832;4.462;2023-09-19T12:05:47;21.80;99.90
23681;DHT22;62915;50.832;4.462;2023-09-19T12:08:15;21.80;99.90
23681;DHT22;62915;50.832;4.462;2023-09-19T12:10:48;21.80;99.90
23681;DHT22;62915;50.832;4.462;2023-09-19T12:13:18;21.80;99.90
23681;DHT22;62915;50.832;4.462;2023-09-19T12:15:45;21.60;99.90
23681;DHT22;62915;50.832;4.462;2023-09-19T12:18:29;21.50;99.90
23681;DHT22;62915;50.832;4.462;2023-09-19T12:20:55;21.40;99.90
23681;DHT22;62915;50.832;4.462;2023-09-19T12:23:21;21.20;99.90
23681;DHT22;62915;50.832;4.462;2023-09-19T12:25:47;21.20;99.90
23681;DHT22;62915;50.832;4.462;2023-09-19T12:28:14;21.10;99.90
23681;DHT22;62915;50.832;4.462;2023-09-19T12:30:42;21.00;99.90
23681;DHT22;62915;50.832;4.462;2023-09-19T12:33:18;20.90;99.90
23681;DHT22;62915;50.832;4.462;2023-09-19T12:35:51;20.90;99.90
23681;DHT22;62915;50.832;4.462;2023-09-19T12:38:25;21.20;99.90
23681;DHT22;62915;50.832;4.462;2023-09-19T12:40:55;21.50;99.90
23681;DHT22;62915;50.832;4.462;2023-09-19T12:43:22;21.60;99.90
23681;DHT22;62915;50.832;4.462;2023-09-19T12:45:48;21.60;99.90
23681;DHT22;62915;50.832;4.462;2023-09-19T12:48:25;21.50;99.90
23681;DHT22;62915;50.832;4.462;2023-09-19T12:51:13;21.40;99.90
23681;DHT22;62915;50.832;4.462;2023-09-19T12:53:40;21.50;99.90
23681;DHT22;62915;50.832;4.462;2023-09-19T12:56:09;21.40;99.90
23681;DHT22;62915;50.832;4.462;2023-09-19T12:58:55;21.70;99.90
23681;DHT22;62915;50.832;4.462;2023-09-19T13:01:23;21.80;99.90
23681;DHT22;62915;50.832;4.462;2023-09-19T13:04:12;21.70;99.90
23681;DHT22;62915;50.832;4.462;2023-09-19T13:06:38;21.60;99.90
23681;DHT22;62915;50.832;4.462;2023-09-19T13:09:10;21.50;99.90
23681;DHT22;62915;50.832;4.462;2023-09-19T13:11:37;21.50;99.90
23681;DHT22;62915;50.832;4.462;2023-09-19T13:14:25;21.30;99.90
23681;DHT22;62915;50.832;4.462;2023-09-19T13:17:04;21.30;99.90
23681;DHT22;62915;50.832;4.462;2023-09-19T13:20:00;21.30;99.90
23681;DHT22;62915;50.832;4.462;2023-09-19T13:22:45;21.20;99.90
23681;DHT22;62915;50.832;4.462;2023-09-19T13:25:18;21.10;99.90
23681;DHT22;62915;50.832;4.462;2023-09-19T13:27:47;21.10;99.90
23681;DHT22;62915;50.832;4.462;2023-09-19T13:30:18;21.00;99.90
23681;DHT22;62915;50.832;4.462;2023-09-19T13:32:45;21.10;99.90
23681;DHT22;62915;50.832;4.462;2023-09-19T13:35:13;21.20;99.90
23681;DHT22;62915;50.832;4.462;2023-09-19T13:37:42;21.20;99.90
23681;DHT22;62915;50.832;4.462;2023-09-19T13:40:14;21.40;99.90
23681;DHT22;62915;50.832;4.462;2023-09-19T13:42:42;21.50;99.90
23681;DHT22;62915;50.832;4.462;2023-09-19T13:45:09;21.40;99.90
23681;DHT22;62915;50.832;4.462;2023-09-19T13:47:38;21.40;99.90
23681;DHT22;62915;50.832;4.462;2023-09-19T13:50:04;21.40;99.90
23681;DHT22;62915;50.832;4.462;2023-09-19T13:52:31;21.10;99.90
23681;DHT22;62915;50.832;4.462;2023-09-19T13:54:57;21.00;99.90
23681;DHT22;62915;50.832;4.462;2023-09-19T13:57:24;21.10;99.90
23681;DHT22;62915;50.832;4.462;2023-09-19T13:59:51;21.10;99.90
23681;DHT22;62915;50.832;4.462;2023-09-19T14:02:21;20.90;99.90
23681;DHT22;62915;50.832;4.462;2023-09-19T14:04:53;20.90;99.90
23681;DHT22;62915;50.832;4.462;2023-09-19T14:07:20;21.00;99.90
23681;DHT22;62915;50.832;4.462;2023-09-19T14:09:46;21.10;99.90
23681;DHT22;62915;50.832;4.462;2023-09-19T14:12:13;20.90;99.90
23681;DHT22;62915;50.832;4.462;2023-09-19T14:14:39;21.00;99.90
23681;DHT22;62915;50.832;4.462;2023-09-19T14:17:05;21.00;99.90
23681;DHT22;62915;50.832;4.462;2023-09-19T14:19:33;20.90;99.90
23681;DHT22;62915;50.832;4.462;2023-09-19T14:22:02;20.90;99.90
23681;DHT22;62915;50.832;4.462;2023-09-19T14:24:33;21.00;99.90
23681;DHT22;62915;50.832;4.462;2023-09-19T14:26:58;21.00;99.90
23681;DHT22;62915;50.832;4.462;2023-09-19T14:29:25;21.00;99.90
23681;DHT22;62915;50.832;4.462;2023-09-19T14:31:50;21.10;99.90
23681;DHT22;62915;50.832;4.462;2023-09-19T14:34:17;21.10;99.90
23681;DHT22;62915;50.832;4.462;2023-09-19T14:36:45;21.20;99.90
23681;DHT22;62915;50.832;4.462;2023-09-19T14:39:10;21.10;99.90
23681;DHT22;62915;50.832;4.462;2023-09-19T14:41:36;21.20;99.90
23681;DHT22;62915;50.832;4.462;2023-09-19T14:44:03;21.30;99.90
23681;DHT22;62915;50.832;4.462;2023-09-19T14:46:30;21.20;99.90
23681;DHT22;62915;50.832;4.462;2023-09-19T14:48:56;21.30;99.90
23681;DHT22;62915;50.832;4.462;2023-09-19T14:51:25;21.40;99.90
23681;DHT22;62915;50.832;4.462;2023-09-19T14:53:51;21.30;99.90
23681;DHT22;62915;50.832;4.462;2023-09-19T14:56:17;21.40;99.90
23681;DHT22;62915;50.832;4.462;2023-09-19T14:58:45;21.50;99.90
23681;DHT22;62915;50.832;4.462;2023-09-19T15:01:13;21.30;99.90
23681;DHT22;62915;50.832;4.462;2023-09-19T15:03:41;21.10;99.90
23681;DHT22;62915;50.832;4.462;2023-09-19T15:06:09;21.10;99.90
23681;DHT22;62915;50.832;4.462;2023-09-19T15:08:36;21.10;99.90
23681;DHT22;62915;50.832;4.462;2023-09-19T15:11:04;21.20;99.90
23681;DHT22;62915;50.832;4.462;2023-09-19T15:13:34;21.20;99.90
23681;DHT22;62915;50.832;4.462;2023-09-19T15:16:05;21.10;99.90
23681;DHT22;62915;50.832;4.462;2023-09-19T15:18:34;21.00;99.90
23681;DHT22;62915;50.832;4.462;2023-09-19T15:21:06;21.10;99.90
23681;DHT22;62915;50.832;4.462;2023-09-19T15:23:33;21.00;99.90
23681;DHT22;62915;50.832;4.462;2023-09-19T15:26:03;20.80;99.90
23681;DHT22;62915;50.832;4.462;2023-09-19T15:28:30;20.70;99.90
23681;DHT22;62915;50.832;4.462;2023-09-19T15:31:09;20.60;99.90
23681;DHT22;62915;50.832;4.462;2023-09-19T15:33:35;20.70;99.90
23681;DHT22;62915;50.832;4.462;2023-09-19T15:36:08;20.70;99.90
23681;DHT22;62915;50.832;4.462;2023-09-19T15:38:56;20.50;99.90
23681;DHT22;62915;50.832;4.462;2023-09-19T15:41:24;20.50;99.90
23681;DHT22;62915;50.832;4.462;2023-09-19T15:43:50;20.40;99.90
23681;DHT22;62915;50.832;4.462;2023-09-19T15:46:16;20.40;99.90
23681;DHT22;62915;50.832;4.462;2023-09-19T15:48:43;20.50;99.90
23681;DHT22;62915;50.832;4.462;2023-09-19T15:51:12;20.50;99.90
23681;DHT22;62915;50.832;4.462;2023-09-19T15:56:11;20.60;99.90
23681;DHT22;62915;50.832;4.462;2023-09-19T15:58:38;20.70;99.90
23681;DHT22;62915;50.832;4.462;2023-09-19T16:01:05;20.50;99.90
23681;DHT22;62915;50.832;4.462;2023-09-19T16:03:35;20.50;99.90
23681;DHT22;62915;50.832;4.462;2023-09-19T16:06:06;20.60;99.90
23681;DHT22;62915;50.832;4.462;2023-09-19T16:08:33;20.40;99.90
23681;DHT22;62915;50.832;4.462;2023-09-19T16:11:00;20.40;99.90
23681;DHT22;62915;50.832;4.462;2023-09-19T16:13:26;20.40;99.90
23681;DHT22;62915;50.832;4.462;2023-09-19T16:15:55;20.60;99.90
23681;DHT22;62915;50.832;4.462;2023-09-19T16:18:20;20.50;99.90
23681;DHT22;62915;50.832;4.462;2023-09-19T16:20:47;20.60;99.90
23681;DHT22;62915;50.832;4.462;2023-09-19T16:23:13;20.50;99.90
23681;DHT22;62915;50.832;4.462;2023-09-19T16:25:38;20.50;99.90
23681;DHT22;62915;50.832;4.462;2023-09-19T16:28:04;20.50;99.90
23681;DHT22;62915;50.832;4.462;2023-09-19T16:30:32;20.50;99.90
23681;DHT22;62915;50.832;4.462;2023-09-19T16:33:01;20.40;99.90